sensor_id;sensor_type;location;lat;lon;timestamp;temperature;humidity
70708;SHT30;58277;47.316;18.908;2022-08-19T00:00:07;25.31;59.12
70708;SHT30;58277;47.316;18.908;2022-08-19T00:02:30;25.31;58.55
70708;SHT30;58277;47.316;18.908;2022-08-19T00:04:53;25.36;58.06
70708;SHT30;58277;47.316;18.908;2022-08-19T00:07:16;25.31;57.63
70708;SHT30;58277;47.316;18.908;2022-08-19T00:09:39;25.36;57.45
70708;SHT30;58277;47.316;18.908;2022-08-19T00:12:04;25.44;57.66
70708;SHT30;58277;47.316;18.908;2022-08-19T00:14:27;25.53;57.94
70708;SHT30;58277;47.316;18.908;2022-08-19T00:16:53;25.61;57.51
70708;SHT30;58277;47.316;18.908;2022-08-19T00:19:17;25.54;56.47
70708;SHT30;58277;47.316;18.908;2022-08-19T00:21:39;25.51;57.17
70708;SHT30;58277;47.316;18.908;2022-08-19T00:24:02;25.61;56.37
70708;SHT30;58277;47.316;18.908;2022-08-19T00:26:26;25.46;56.66
70708;SHT30;58277;47.316;18.908;2022-08-19T00:28:49;25.37;56.96
70708;SHT30;58277;47.316;18.908;2022-08-19T00:31:12;25.36;56.74
70708;SHT30;58277;47.316;18.908;2022-08-19T00:33:34;25.41;56.81
70708;SHT30;58277;47.316;18.908;2022-08-19T00:35:58;25.44;56.70
70708;SHT30;58277;47.316;18.908;2022-08-19T00:38:20;25.51;56.51
70708;SHT30;58277;47.316;18.908;2022-08-19T00:40:59;25.50;56.81
70708;SHT30;58277;47.316;18.908;2022-08-19T00:43:24;25.43;56.78
70708;SHT30;58277;47.316;18.908;2022-08-19T00:45:49;25.33;57.17
70708;SHT30;58277;47.316;18.908;2022-08-19T00:48:14;25.31;57.28
70708;SHT30;58277;47.316;18.908;2022-08-19T00:50:39;25.28;57.47
70708;SHT30;58277;47.316;18.908;2022-08-19T00:53:15;25.30;57.61
70708;SHT30;58277;47.316;18.908;2022-08-19T00:55:40;25.28;57.68
70708;SHT30;58277;47.316;18.908;2022-08-19T00:58:08;25.28;57.64
70708;SHT30;58277;47.316;18.908;2022-08-19T01:00:33;25.36;57.46
70708;SHT30;58277;47.316;18.908;2022-08-19T01:02:59;25.27;57.53
70708;SHT30;58277;47.316;18.908;2022-08-19T01:05:26;25.22;57.67
70708;SHT30;58277;47.316;18.908;2022-08-19T01:07:50;25.17;57.78
70708;SHT30;58277;47.316;18.908;2022-08-19T01:10:17;25.17;57.89
70708;SHT30;58277;47.316;18.908;2022-08-19T01:12:41;25.36;57.28
70708;SHT30;58277;47.316;18.908;2022-08-19T01:15:07;25.34;56.95
70708;SHT30;58277;47.316;18.908;2022-08-19T01:17:30;25.22;57.20
70708;SHT30;58277;47.316;18.908;2022-08-19T01:19:53;25.16;57.67
70708;SHT30;58277;47.316;18.908;2022-08-19T01:24:54;25.17;57.74
70708;SHT30;58277;47.316;18.908;2022-08-19T01:27:18;25.09;58.04
70708;SHT30;58277;47.316;18.908;2022-08-19T01:29:43;25.02;58.44
70708;SHT30;58277;47.316;18.908;2022-08-19T01:32:10;25.03;58.44
70708;SHT30;58277;47.316;18.908;2022-08-19T01:34:54;25.08;58.36
70708;SHT30;58277;47.316;18.908;2022-08-19T01:37:16;24.95;58.58
70708;SHT30;58277;47.316;18.908;2022-08-19T01:39:48;24.95;58.02
70708;SHT30;58277;47.316;18.908;2022-08-19T01:42:11;24.99;58.35
70708;SHT30;58277;47.316;18.908;2022-08-19T01:44:35;24.96;58.44
70708;SHT30;58277;47.316;18.908;2022-08-19T01:46:58;24.93;58.41
70708;SHT30;58277;47.316;18.908;2022-08-19T01:49:23;24.92;58.69
70708;SHT30;58277;47.316;18.908;2022-08-19T01:51:47;24.86;58.53
70708;SHT30;58277;47.316;18.908;2022-08-19T01:54:13;24.92;58.31
70708;SHT30;58277;47.316;18.908;2022-08-19T01:56:51;24.90;58.02
70708;SHT30;58277;47.316;18.908;2022-08-19T01:59:17;24.90;58.56
70708;SHT30;58277;47.316;18.908;2022-08-19T02:01:41;24.88;58.82
70708;SHT30;58277;47.316;18.908;2022-08-19T02:04:04;24.82;59.20
70708;SHT30;58277;47.316;18.908;2022-08-19T02:06:28;24.82;59.02
70708;SHT30;58277;47.316;18.908;2022-08-19T02:08:51;24.72;59.07
70708;SHT30;58277;47.316;18.908;2022-08-19T02:11:24;24.68;58.87
70708;SHT30;58277;47.316;18.908;2022-08-19T02:13:49;24.67;58.83
70708;SHT30;58277;47.316;18.908;2022-08-19T02:16:11;24.65;58.69
70708;SHT30;58277;47.316;18.908;2022-08-19T02:18:34;24.64;58.54
70708;SHT30;58277;47.316;18.908;2022-08-19T02:20:57;24.65;58.59
70708;SHT30;58277;47.316;18.908;2022-08-19T02:23:19;24.58;58.57
70708;SHT30;58277;47.316;18.908;2022-08-19T02:25:44;24.69;58.24
70708;SHT30;58277;47.316;18.908;2022-08-19T02:28:07;24.72;58.59
70708;SHT30;58277;47.316;18.908;2022-08-19T02:30:30;24.68;58.13
70708;SHT30;58277;47.316;18.908;2022-08-19T02:32:53;24.61;58.37
70708;SHT30;58277;47.316;18.908;2022-08-19T02:35:16;24.58;58.43
70708;SHT30;58277;47.316;18.908;2022-08-19T02:37:39;24.60;58.56
70708;SHT30;58277;47.316;18.908;2022-08-19T02:40:21;24.62;58.62
70708;SHT30;58277;47.316;18.908;2022-08-19T02:42:45;24.52;58.69
70708;SHT30;58277;47.316;18.908;2022-08-19T02:45:08;24.47;58.85
70708;SHT30;58277;47.316;18.908;2022-08-19T02:47:31;24.42;59.08
70708;SHT30;58277;47.316;18.908;2022-08-19T02:49:54;24.41;59.08
70708;SHT30;58277;47.316;18.908;2022-08-19T02:52:16;24.50;58.70
70708;SHT30;58277;47.316;18.908;2022-08-19T02:54:39;24.41;58.79
70708;SHT30;58277;47.316;18.908;2022-08-19T02:57:02;24.47;59.13
70708;SHT30;58277;47.316;18.908;2022-08-19T02:59:24;24.35;59.52
70708;SHT30;58277;47.316;18.908;2022-08-19T03:01:48;24.31;59.73
70708;SHT30;58277;47.316;18.908;2022-08-19T03:04:14;24.31;59.71
70708;SHT30;58277;47.316;18.908;2022-08-19T03:06:39;24.27;60.08
70708;SHT30;58277;47.316;18.908;2022-08-19T03:09:02;24.23;59.69
70708;SHT30;58277;47.316;18.908;2022-08-19T03:11:28;24.18;60.05
70708;SHT30;58277;47.316;18.908;2022-08-19T03:13:52;24.13;59.84
70708;SHT30;58277;47.316;18.908;2022-08-19T03:16:16;24.16;59.97
70708;SHT30;58277;47.316;18.908;2022-08-19T03:18:39;24.10;60.26
70708;SHT30;58277;47.316;18.908;2022-08-19T03:21:02;24.06;60.19
70708;SHT30;58277;47.316;18.908;2022-08-19T03:23:25;24.25;59.44
70708;SHT30;58277;47.316;18.908;2022-08-19T03:25:48;24.28;59.16
70708;SHT30;58277;47.316;18.908;2022-08-19T03:28:25;24.31;59.20
70708;SHT30;58277;47.316;18.908;2022-08-19T03:30:59;24.27;59.03
70708;SHT30;58277;47.316;18.908;2022-08-19T03:33:23;24.28;59.07
70708;SHT30;58277;47.316;18.908;2022-08-19T03:36:12;24.31;58.83
70708;SHT30;58277;47.316;18.908;2022-08-19T03:38:41;24.27;59.04
70708;SHT30;58277;47.316;18.908;2022-08-19T03:41:07;24.41;58.79
70708;SHT30;58277;47.316;18.908;2022-08-19T03:43:30;24.35;58.68
70708;SHT30;58277;47.316;18.908;2022-08-19T03:46:10;24.41;58.57
70708;SHT30;58277;47.316;18.908;2022-08-19T03:48:34;24.42;58.59
70708;SHT30;58277;47.316;18.908;2022-08-19T03:50:58;24.41;58.60
70708;SHT30;58277;47.316;18.908;2022-08-19T03:53:21;24.44;58.45
70708;SHT30;58277;47.316;18.908;2022-08-19T03:55:44;24.41;58.74
70708;SHT30;58277;47.316;18.908;2022-08-19T03:58:06;24.45;58.65
70708;SHT30;58277;47.316;18.908;2022-08-19T04:00:29;24.55;58.60
70708;SHT30;58277;47.316;18.908;2022-08-19T04:02:51;24.50;58.72
70708;SHT30;58277;47.316;18.908;2022-08-19T04:05:21;24.44;58.68
70708;SHT30;58277;47.316;18.908;2022-08-19T04:07:49;24.42;58.95
70708;SHT30;58277;47.316;18.908;2022-08-19T04:10:11;24.42;59.06
70708;SHT30;58277;47.316;18.908;2022-08-19T04:12:35;24.57;58.81
70708;SHT30;58277;47.316;18.908;2022-08-19T04:14:59;24.57;59.02
70708;SHT30;58277;47.316;18.908;2022-08-19T04:17:21;24.62;58.74
70708;SHT30;58277;47.316;18.908;2022-08-19T04:19:44;24.52;58.98
70708;SHT30;58277;47.316;18.908;2022-08-19T04:22:07;24.48;59.00
70708;SHT30;58277;47.316;18.908;2022-08-19T04:24:29;24.61;58.92
70708;SHT30;58277;47.316;18.908;2022-08-19T04:26:52;24.76;58.67
70708;SHT30;58277;47.316;18.908;2022-08-19T04:29:18;24.86;58.21
70708;SHT30;58277;47.316;18.908;2022-08-19T04:31:42;24.88;58.15
70708;SHT30;58277;47.316;18.908;2022-08-19T04:34:08;24.86;57.58
70708;SHT30;58277;47.316;18.908;2022-08-19T04:36:35;24.85;57.81
70708;SHT30;58277;47.316;18.908;2022-08-19T04:39:03;24.96;57.66
70708;SHT30;58277;47.316;18.908;2022-08-19T04:41:26;24.86;57.75
70708;SHT30;58277;47.316;18.908;2022-08-19T04:44:12;25.08;57.08
70708;SHT30;58277;47.316;18.908;2022-08-19T04:46:35;24.99;57.48
70708;SHT30;58277;47.316;18.908;2022-08-19T04:49:12;25.09;57.34
70708;SHT30;58277;47.316;18.908;2022-08-19T04:51:41;25.16;56.57
70708;SHT30;58277;47.316;18.908;2022-08-19T04:54:04;25.27;57.13
70708;SHT30;58277;47.316;18.908;2022-08-19T04:56:27;25.27;57.11
70708;SHT30;58277;47.316;18.908;2022-08-19T04:58:50;25.36;56.97
70708;SHT30;58277;47.316;18.908;2022-08-19T05:01:17;25.38;56.81
70708;SHT30;58277;47.316;18.908;2022-08-19T05:03:40;25.44;56.82
70708;SHT30;58277;47.316;18.908;2022-08-19T05:06:09;25.46;56.81
70708;SHT30;58277;47.316;18.908;2022-08-19T05:08:34;25.65;56.38
70708;SHT30;58277;47.316;18.908;2022-08-19T05:10:57;25.74;55.92
70708;SHT30;58277;47.316;18.908;2022-08-19T05:13:20;25.75;56.01
70708;SHT30;58277;47.316;18.908;2022-08-19T05:15:43;25.74;56.02
70708;SHT30;58277;47.316;18.908;2022-08-19T05:18:05;25.64;55.99
70708;SHT30;58277;47.316;18.908;2022-08-19T05:20:46;25.68;55.90
70708;SHT30;58277;47.316;18.908;2022-08-19T05:23:28;25.85;55.45
70708;SHT30;58277;47.316;18.908;2022-08-19T05:25:51;25.78;56.26
70708;SHT30;58277;47.316;18.908;2022-08-19T05:28:14;25.80;55.49
70708;SHT30;58277;47.316;18.908;2022-08-19T05:30:36;26.09;55.08
70708;SHT30;58277;47.316;18.908;2022-08-19T05:33:09;26.32;54.32
70708;SHT30;58277;47.316;18.908;2022-08-19T05:35:32;26.46;53.95
70708;SHT30;58277;47.316;18.908;2022-08-19T05:37:56;26.77;53.11
70708;SHT30;58277;47.316;18.908;2022-08-19T05:40:20;27.21;52.00
70708;SHT30;58277;47.316;18.908;2022-08-19T05:42:44;27.12;52.17
70708;SHT30;58277;47.316;18.908;2022-08-19T05:45:16;26.84;53.39
70708;SHT30;58277;47.316;18.908;2022-08-19T05:47:39;26.92;52.43
70708;SHT30;58277;47.316;18.908;2022-08-19T05:50:04;26.65;53.19
70708;SHT30;58277;47.316;18.908;2022-08-19T05:52:27;26.68;53.23
70708;SHT30;58277;47.316;18.908;2022-08-19T05:54:52;26.37;53.55
70708;SHT30;58277;47.316;18.908;2022-08-19T05:57:20;26.32;54.24
70708;SHT30;58277;47.316;18.908;2022-08-19T05:59:43;26.41;53.77
70708;SHT30;58277;47.316;18.908;2022-08-19T06:02:08;26.64;53.50
70708;SHT30;58277;47.316;18.908;2022-08-19T06:04:31;26.71;53.50
70708;SHT30;58277;47.316;18.908;2022-08-19T06:06:54;26.86;53.11
70708;SHT30;58277;47.316;18.908;2022-08-19T06:09:18;26.84;52.87
70708;SHT30;58277;47.316;18.908;2022-08-19T06:11:49;26.54;53.72
70708;SHT30;58277;47.316;18.908;2022-08-19T06:14:18;26.67;54.54
70708;SHT30;58277;47.316;18.908;2022-08-19T06:16:49;26.71;53.72
70708;SHT30;58277;47.316;18.908;2022-08-19T06:19:16;26.84;53.08
70708;SHT30;58277;47.316;18.908;2022-08-19T06:21:41;27.11;53.04
70708;SHT30;58277;47.316;18.908;2022-08-19T06:24:06;27.28;52.42
70708;SHT30;58277;47.316;18.908;2022-08-19T06:26:29;27.18;51.92
70708;SHT30;58277;47.316;18.908;2022-08-19T06:28:52;27.18;52.39
70708;SHT30;58277;47.316;18.908;2022-08-19T06:31:18;27.41;52.19
70708;SHT30;58277;47.316;18.908;2022-08-19T06:33:43;27.24;52.30
70708;SHT30;58277;47.316;18.908;2022-08-19T06:36:07;27.28;51.95
70708;SHT30;58277;47.316;18.908;2022-08-19T06:38:29;27.29;51.67
70708;SHT30;58277;47.316;18.908;2022-08-19T06:41:03;27.21;51.95
70708;SHT30;58277;47.316;18.908;2022-08-19T06:43:29;27.49;52.09
70708;SHT30;58277;47.316;18.908;2022-08-19T06:45:52;27.39;51.54
70708;SHT30;58277;47.316;18.908;2022-08-19T06:48:15;27.66;51.59
70708;SHT30;58277;47.316;18.908;2022-08-19T06:50:39;27.70;51.51
70708;SHT30;58277;47.316;18.908;2022-08-19T06:53:02;27.81;51.69
70708;SHT30;58277;47.316;18.908;2022-08-19T06:55:26;27.98;50.07
70708;SHT30;58277;47.316;18.908;2022-08-19T06:57:51;27.86;49.97
70708;SHT30;58277;47.316;18.908;2022-08-19T07:00:16;27.96;50.09
70708;SHT30;58277;47.316;18.908;2022-08-19T07:02:43;28.14;49.94
70708;SHT30;58277;47.316;18.908;2022-08-19T07:05:16;28.24;49.07
70708;SHT30;58277;47.316;18.908;2022-08-19T07:07:41;28.31;49.02
70708;SHT30;58277;47.316;18.908;2022-08-19T07:10:09;28.38;49.08
70708;SHT30;58277;47.316;18.908;2022-08-19T07:12:32;28.37;49.25
70708;SHT30;58277;47.316;18.908;2022-08-19T07:14:59;28.55;48.97
70708;SHT30;58277;47.316;18.908;2022-08-19T07:17:23;28.49;48.33
70708;SHT30;58277;47.316;18.908;2022-08-19T07:19:46;28.49;47.71
70708;SHT30;58277;47.316;18.908;2022-08-19T07:22:10;28.86;47.85
70708;SHT30;58277;47.316;18.908;2022-08-19T07:24:35;29.08;47.06
70708;SHT30;58277;47.316;18.908;2022-08-19T07:27:00;29.21;46.60
70708;SHT30;58277;47.316;18.908;2022-08-19T07:29:31;29.23;45.52
70708;SHT30;58277;47.316;18.908;2022-08-19T07:31:57;29.34;45.84
70708;SHT30;58277;47.316;18.908;2022-08-19T07:34:23;29.44;45.29
70708;SHT30;58277;47.316;18.908;2022-08-19T07:36:46;29.55;45.17
70708;SHT30;58277;47.316;18.908;2022-08-19T07:39:19;29.73;45.09
70708;SHT30;58277;47.316;18.908;2022-08-19T07:41:43;29.95;44.82
70708;SHT30;58277;47.316;18.908;2022-08-19T07:44:06;30.17;43.79
70708;SHT30;58277;47.316;18.908;2022-08-19T07:46:34;30.10;43.91
70708;SHT30;58277;47.316;18.908;2022-08-19T07:48:59;30.43;44.02
70708;SHT30;58277;47.316;18.908;2022-08-19T07:51:22;30.24;43.63
70708;SHT30;58277;47.316;18.908;2022-08-19T07:53:58;30.47;42.90
70708;SHT30;58277;47.316;18.908;2022-08-19T07:56:21;30.37;43.03
70708;SHT30;58277;47.316;18.908;2022-08-19T07:58:46;30.55;43.11
70708;SHT30;58277;47.316;18.908;2022-08-19T08:01:14;30.57;42.26
70708;SHT30;58277;47.316;18.908;2022-08-19T08:03:38;30.75;42.17
70708;SHT30;58277;47.316;18.908;2022-08-19T08:06:19;30.78;42.61
70708;SHT30;58277;47.316;18.908;2022-08-19T08:09:06;30.86;42.49
70708;SHT30;58277;47.316;18.908;2022-08-19T08:11:39;31.03;41.13
70708;SHT30;58277;47.316;18.908;2022-08-19T08:14:02;30.98;42.48
70708;SHT30;58277;47.316;18.908;2022-08-19T08:16:26;30.96;41.27
70708;SHT30;58277;47.316;18.908;2022-08-19T08:18:52;30.69;41.38
70708;SHT30;58277;47.316;18.908;2022-08-19T08:21:15;30.82;42.39
70708;SHT30;58277;47.316;18.908;2022-08-19T08:23:37;30.98;40.57
70708;SHT30;58277;47.316;18.908;2022-08-19T08:26:01;31.00;40.76
70708;SHT30;58277;47.316;18.908;2022-08-19T08:28:25;31.18;41.34
70708;SHT30;58277;47.316;18.908;2022-08-19T08:30:51;31.22;40.60
70708;SHT30;58277;47.316;18.908;2022-08-19T08:33:21;31.34;40.74
70708;SHT30;58277;47.316;18.908;2022-08-19T08:35:54;31.57;41.22
70708;SHT30;58277;47.316;18.908;2022-08-19T08:38:17;31.47;39.23
70708;SHT30;58277;47.316;18.908;2022-08-19T08:40:44;31.51;39.85
70708;SHT30;58277;47.316;18.908;2022-08-19T08:46:15;31.58;39.22
70708;SHT30;58277;47.316;18.908;2022-08-19T08:52:34;31.84;38.67
70708;SHT30;58277;47.316;18.908;2022-08-19T08:54:45;31.81;38.04
70708;SHT30;58277;47.316;18.908;2022-08-19T08:57:30;32.02;38.44
70708;SHT30;58277;47.316;18.908;2022-08-19T09:00:08;32.22;38.54
70708;SHT30;58277;47.316;18.908;2022-08-19T09:02:37;32.28;38.30
70708;SHT30;58277;47.316;18.908;2022-08-19T09:05:04;32.31;38.09
70708;SHT30;58277;47.316;18.908;2022-08-19T09:07:37;32.32;38.35
70708;SHT30;58277;47.316;18.908;2022-08-19T09:10:51;32.28;38.01
70708;SHT30;58277;47.316;18.908;2022-08-19T09:15:43;32.57;35.79
70708;SHT30;58277;47.316;18.908;2022-08-19T09:18:09;32.33;35.82
70708;SHT30;58277;47.316;18.908;2022-08-19T09:20:40;32.35;36.13
70708;SHT30;58277;47.316;18.908;2022-08-19T09:23:04;32.51;36.65
70708;SHT30;58277;47.316;18.908;2022-08-19T09:25:27;32.64;36.45
70708;SHT30;58277;47.316;18.908;2022-08-19T09:27:52;32.66;36.16
70708;SHT30;58277;47.316;18.908;2022-08-19T09:30:26;32.69;35.96
70708;SHT30;58277;47.316;18.908;2022-08-19T09:32:53;32.88;36.54
70708;SHT30;58277;47.316;18.908;2022-08-19T09:35:16;32.97;36.42
70708;SHT30;58277;47.316;18.908;2022-08-19T09:37:39;33.00;35.10
70708;SHT30;58277;47.316;18.908;2022-08-19T09:40:03;33.11;35.78
70708;SHT30;58277;47.316;18.908;2022-08-19T09:42:26;33.22;35.29
70708;SHT30;58277;47.316;18.908;2022-08-19T09:44:51;33.27;35.24
70708;SHT30;58277;47.316;18.908;2022-08-19T09:47:14;33.32;35.16
70708;SHT30;58277;47.316;18.908;2022-08-19T09:49:41;33.45;35.71
70708;SHT30;58277;47.316;18.908;2022-08-19T09:52:04;33.58;35.97
70708;SHT30;58277;47.316;18.908;2022-08-19T09:54:27;33.51;34.94
70708;SHT30;58277;47.316;18.908;2022-08-19T09:56:54;33.51;34.77
70708;SHT30;58277;47.316;18.908;2022-08-19T09:59:17;33.42;34.46
70708;SHT30;58277;47.316;18.908;2022-08-19T10:01:40;33.55;35.03
70708;SHT30;58277;47.316;18.908;2022-08-19T10:04:05;33.55;34.57
70708;SHT30;58277;47.316;18.908;2022-08-19T10:06:41;33.55;35.31
70708;SHT30;58277;47.316;18.908;2022-08-19T10:09:09;33.69;35.21
70708;SHT30;58277;47.316;18.908;2022-08-19T10:11:34;33.80;34.55
70708;SHT30;58277;47.316;18.908;2022-08-19T10:14:03;33.76;34.75
70708;SHT30;58277;47.316;18.908;2022-08-19T10:16:28;33.73;33.17
70708;SHT30;58277;47.316;18.908;2022-08-19T10:18:52;33.76;33.10
70708;SHT30;58277;47.316;18.908;2022-08-19T10:21:26;33.96;34.25
70708;SHT30;58277;47.316;18.908;2022-08-19T10:23:51;34.17;33.96
70708;SHT30;58277;47.316;18.908;2022-08-19T10:26:18;34.20;33.39
70708;SHT30;58277;47.316;18.908;2022-08-19T10:28:42;34.16;32.76
70708;SHT30;58277;47.316;18.908;2022-08-19T10:31:15;34.38;32.92
70708;SHT30;58277;47.316;18.908;2022-08-19T10:33:41;34.48;32.05
70708;SHT30;58277;47.316;18.908;2022-08-19T10:36:18;34.48;33.34
70708;SHT30;58277;47.316;18.908;2022-08-19T10:38:41;34.75;32.96
70708;SHT30;58277;47.316;18.908;2022-08-19T10:41:21;34.71;32.31
70708;SHT30;58277;47.316;18.908;2022-08-19T10:43:47;34.84;32.49
70708;SHT30;58277;47.316;18.908;2022-08-19T10:46:14;34.82;31.55
70708;SHT30;58277;47.316;18.908;2022-08-19T10:48:38;34.71;31.85
70708;SHT30;58277;47.316;18.908;2022-08-19T10:51:04;34.65;31.78
70708;SHT30;58277;47.316;18.908;2022-08-19T10:53:46;34.79;32.55
70708;SHT30;58277;47.316;18.908;2022-08-19T10:56:09;34.94;32.13
70708;SHT30;58277;47.316;18.908;2022-08-19T10:58:50;34.98;32.49
70708;SHT30;58277;47.316;18.908;2022-08-19T11:01:13;35.02;32.06
70708;SHT30;58277;47.316;18.908;2022-08-19T11:03:35;35.13;32.58
70708;SHT30;58277;47.316;18.908;2022-08-19T11:06:13;35.39;32.08
70708;SHT30;58277;47.316;18.908;2022-08-19T11:08:37;35.37;31.98
70708;SHT30;58277;47.316;18.908;2022-08-19T11:11:06;35.61;31.69
70708;SHT30;58277;47.316;18.908;2022-08-19T11:13:30;35.82;31.74
70708;SHT30;58277;47.316;18.908;2022-08-19T11:16:10;35.82;31.68
70708;SHT30;58277;47.316;18.908;2022-08-19T11:18:45;35.55;30.87
70708;SHT30;58277;47.316;18.908;2022-08-19T11:21:22;35.57;32.03
70708;SHT30;58277;47.316;18.908;2022-08-19T11:23:47;35.62;31.23
70708;SHT30;58277;47.316;18.908;2022-08-19T11:26:31;35.65;31.04
70708;SHT30;58277;47.316;18.908;2022-08-19T11:28:57;35.62;30.77
70708;SHT30;58277;47.316;18.908;2022-08-19T11:31:22;35.78;30.43
70708;SHT30;58277;47.316;18.908;2022-08-19T11:33:50;35.74;31.03
70708;SHT30;58277;47.316;18.908;2022-08-19T11:36:17;35.85;31.40
70708;SHT30;58277;47.316;18.908;2022-08-19T11:38:39;35.80;30.02
70708;SHT30;58277;47.316;18.908;2022-08-19T11:41:05;35.80;30.46
70708;SHT30;58277;47.316;18.908;2022-08-19T11:43:30;35.84;30.37
70708;SHT30;58277;47.316;18.908;2022-08-19T11:45:59;35.73;31.30
70708;SHT30;58277;47.316;18.908;2022-08-19T11:48:23;35.62;30.14
70708;SHT30;58277;47.316;18.908;2022-08-19T11:50:46;35.99;29.96
70708;SHT30;58277;47.316;18.908;2022-08-19T11:53:09;36.21;30.40
70708;SHT30;58277;47.316;18.908;2022-08-19T11:55:32;36.26;30.03
70708;SHT30;58277;47.316;18.908;2022-08-19T11:57:55;36.28;30.40
70708;SHT30;58277;47.316;18.908;2022-08-19T12:00:18;36.55;29.98
70708;SHT30;58277;47.316;18.908;2022-08-19T12:02:40;36.50;29.77
70708;SHT30;58277;47.316;18.908;2022-08-19T12:05:03;36.45;30.15
70708;SHT30;58277;47.316;18.908;2022-08-19T12:07:34;36.76;30.07
70708;SHT30;58277;47.316;18.908;2022-08-19T12:09:56;37.04;29.10
70708;SHT30;58277;47.316;18.908;2022-08-19T12:12:19;37.28;28.42
70708;SHT30;58277;47.316;18.908;2022-08-19T12:14:42;37.52;28.28
70708;SHT30;58277;47.316;18.908;2022-08-19T12:17:04;37.61;28.61
70708;SHT30;58277;47.316;18.908;2022-08-19T12:19:30;37.62;28.68
70708;SHT30;58277;47.316;18.908;2022-08-19T12:21:52;37.42;28.34
70708;SHT30;58277;47.316;18.908;2022-08-19T12:24:17;37.07;29.16
70708;SHT30;58277;47.316;18.908;2022-08-19T12:26:45;37.08;29.33
70708;SHT30;58277;47.316;18.908;2022-08-19T12:29:15;37.11;28.75
70708;SHT30;58277;47.316;18.908;2022-08-19T12:31:44;36.69;29.19
70708;SHT30;58277;47.316;18.908;2022-08-19T12:34:08;36.60;29.61
70708;SHT30;58277;47.316;18.908;2022-08-19T12:36:31;37.02;30.07
70708;SHT30;58277;47.316;18.908;2022-08-19T12:38:54;37.22;28.71
70708;SHT30;58277;47.316;18.908;2022-08-19T12:41:18;37.46;28.60
70708;SHT30;58277;47.316;18.908;2022-08-19T12:43:41;37.43;28.48
70708;SHT30;58277;47.316;18.908;2022-08-19T12:46:05;37.13;29.32
70708;SHT30;58277;47.316;18.908;2022-08-19T12:48:30;37.42;28.15
70708;SHT30;58277;47.316;18.908;2022-08-19T12:50:56;37.42;27.88
70708;SHT30;58277;47.316;18.908;2022-08-19T12:53:19;37.04;28.62
70708;SHT30;58277;47.316;18.908;2022-08-19T12:55:42;36.76;29.56
70708;SHT30;58277;47.316;18.908;2022-08-19T12:58:07;36.52;29.49
70708;SHT30;58277;47.316;18.908;2022-08-19T13:00:29;36.69;29.58
70708;SHT30;58277;47.316;18.908;2022-08-19T13:02:55;36.88;28.14
70708;SHT30;58277;47.316;18.908;2022-08-19T13:05:20;36.97;29.47
70708;SHT30;58277;47.316;18.908;2022-08-19T13:07:45;37.15;30.14
70708;SHT30;58277;47.316;18.908;2022-08-19T13:10:10;37.21;30.54
70708;SHT30;58277;47.316;18.908;2022-08-19T13:12:34;36.95;31.90
70708;SHT30;58277;47.316;18.908;2022-08-19T13:14:57;36.47;32.94
70708;SHT30;58277;47.316;18.908;2022-08-19T13:17:20;36.32;33.53
70708;SHT30;58277;47.316;18.908;2022-08-19T13:19:43;36.15;33.90
70708;SHT30;58277;47.316;18.908;2022-08-19T13:22:06;36.26;33.31
70708;SHT30;58277;47.316;18.908;2022-08-19T13:24:36;36.40;33.18
70708;SHT30;58277;47.316;18.908;2022-08-19T13:27:00;36.46;32.18
70708;SHT30;58277;47.316;18.908;2022-08-19T13:29:23;36.49;31.81
70708;SHT30;58277;47.316;18.908;2022-08-19T13:32:04;36.43;31.90
70708;SHT30;58277;47.316;18.908;2022-08-19T13:34:46;36.42;31.93
70708;SHT30;58277;47.316;18.908;2022-08-19T13:37:09;36.36;32.39
70708;SHT30;58277;47.316;18.908;2022-08-19T13:39:32;36.16;33.08
70708;SHT30;58277;47.316;18.908;2022-08-19T13:41:55;36.01;33.39
70708;SHT30;58277;47.316;18.908;2022-08-19T13:44:18;36.04;33.55
70708;SHT30;58277;47.316;18.908;2022-08-19T13:46:42;35.61;34.10
70708;SHT30;58277;47.316;18.908;2022-08-19T13:49:07;35.39;34.33
70708;SHT30;58277;47.316;18.908;2022-08-19T13:51:30;35.37;34.72
70708;SHT30;58277;47.316;18.908;2022-08-19T13:53:52;35.17;34.57
70708;SHT30;58277;47.316;18.908;2022-08-19T13:56:18;35.06;34.76
70708;SHT30;58277;47.316;18.908;2022-08-19T13:58:47;34.86;34.37
70708;SHT30;58277;47.316;18.908;2022-08-19T14:01:10;34.71;34.40
70708;SHT30;58277;47.316;18.908;2022-08-19T14:03:34;34.49;35.04
70708;SHT30;58277;47.316;18.908;2022-08-19T14:05:56;34.38;35.06
70708;SHT30;58277;47.316;18.908;2022-08-19T14:08:21;34.40;34.68
70708;SHT30;58277;47.316;18.908;2022-08-19T14:10:44;34.25;34.49
70708;SHT30;58277;47.316;18.908;2022-08-19T14:13:07;34.19;33.44
70708;SHT30;58277;47.316;18.908;2022-08-19T14:15:31;33.96;32.16
70708;SHT30;58277;47.316;18.908;2022-08-19T14:17:54;33.90;31.57
70708;SHT30;58277;47.316;18.908;2022-08-19T14:20:18;34.00;31.30
70708;SHT30;58277;47.316;18.908;2022-08-19T14:22:41;33.94;31.23
70708;SHT30;58277;47.316;18.908;2022-08-19T14:25:05;33.99;31.23
70708;SHT30;58277;47.316;18.908;2022-08-19T14:27:28;33.82;31.64
70708;SHT30;58277;47.316;18.908;2022-08-19T14:29:52;33.83;31.27
70708;SHT30;58277;47.316;18.908;2022-08-19T14:32:15;33.62;31.41
70708;SHT30;58277;47.316;18.908;2022-08-19T14:34:38;33.48;32.32
70708;SHT30;58277;47.316;18.908;2022-08-19T14:37:01;33.25;32.09
70708;SHT30;58277;47.316;18.908;2022-08-19T14:39:23;33.08;31.87
70708;SHT30;58277;47.316;18.908;2022-08-19T14:41:46;32.90;31.69
70708;SHT30;58277;47.316;18.908;2022-08-19T14:44:09;32.80;31.74
70708;SHT30;58277;47.316;18.908;2022-08-19T14:46:34;32.80;31.73
70708;SHT30;58277;47.316;18.908;2022-08-19T14:48:58;32.90;31.81
70708;SHT30;58277;47.316;18.908;2022-08-19T14:51:24;32.91;31.92
70708;SHT30;58277;47.316;18.908;2022-08-19T14:53:49;32.96;31.74
70708;SHT30;58277;47.316;18.908;2022-08-19T14:56:15;32.91;31.83
70708;SHT30;58277;47.316;18.908;2022-08-19T14:58:39;32.81;31.85
70708;SHT30;58277;47.316;18.908;2022-08-19T15:01:03;32.79;31.57
70708;SHT30;58277;47.316;18.908;2022-08-19T15:03:28;32.76;31.68
70708;SHT30;58277;47.316;18.908;2022-08-19T15:05:51;32.74;31.55
70708;SHT30;58277;47.316;18.908;2022-08-19T15:08:13;32.69;31.71
70708;SHT30;58277;47.316;18.908;2022-08-19T15:10:38;32.57;32.03
70708;SHT30;58277;47.316;18.908;2022-08-19T15:13:01;32.40;32.22
70708;SHT30;58277;47.316;18.908;2022-08-19T15:15:24;32.31;32.48
70708;SHT30;58277;47.316;18.908;2022-08-19T15:17:46;32.21;32.26